Pago Pago, AS

10:44 AM SST on October 22, 2014 (GMT -1100)
Kona International At Keahole | Change Station
CLOSE
Current Station
Airport
Location: Keahole Point,
Elevation: 13 m
Nearby Weather Stations

Elev 13 m 19.74 °N, 156.05 °W | Updated 51 minutes ago

Partly Cloudy
Partly Cloudy
29 °C
Feels Like 33 °C
N
15
Wind Variable Wind from WNW

Today
High -- | Low -- °C
--% Chance of Precip.
Yesterday
High -- | Low -- °C
Precip. -- mm
5:52 AM 6:22 PM
Waning Crescent, 1% visible
Pressure 1016 hPa
Visibility 16.1 kilometers
Clouds Few 609 m
Heat Index 33 °C
Dew Point 23 °C
Humidity 67%
Rainfall 0.0 mm
Snow Depth Not available.
UV 8 out of 12
Pollen Not available.
Air Quality Not available.
Flu Activity
METAR PHKO 222053Z 30008KT 10SM FEW020 29/23 A3001 RMK AO2 SLP162 T02940228 50003

More Conditions Fewer Conditions

Pressure 1016 hPa
Visibility 16.1 kilometers
Clouds Few 609 m
Heat Index 33 °C
Dew Point 23 °C
Humidity 67%
Rainfall 0.0 mm
Snow Depth Not available.
UV 8 out of 12
Pollen Not available.
Air Quality Not available.
Flu Activity
METAR PHKO 222053Z 30008KT 10SM FEW020 29/23 A3001 RMK AO2 SLP162 T02940228 50003

More Conditions Fewer Conditions

10-Day Weather Forecast

Almanac

Astronomy

Oct. 22, 2014 Rise Set
Actual Time 5:52 AM SST 6:22 PM SST
Civil Twilight 5:30 AM SST 6:44 PM SST
Nautical Twilight 5:04 AM SST 7:09 PM SST
Astronomical Twilight 4:39 AM SST 7:35 PM SST
Moon 5:06 AM SST 5:44 PM SST
Length of Visible Light 13h 13m
Length of Day
12h 30m
Tomorrow will be 0m 45s longer.
Waning Crescent, 1% of the Moon is Illuminated
Today
Waning Crescent
Oct 23
New
Oct 30
First Quarter
Nov 6
Full
Nov 14
Last Quarter

Community

WunderPhotos

Upload Photos

1,764,047 photos uploaded!

WunderBlogs® & News

By Dr. Jeff Masters
Director of Meteorology, Weather Underground
By Kari Strenfel
Meteorologist, Weather Underground
By Christopher C. Burt
Weather Historian, Weather Underground
October 22, 2014
October 22, 2014
October 22, 2014

Nearby

Snow Depth

Station Depth Elevation
No new snow has been reported.

Earthquake Activity

City Distance Mag. Time & Date
No recent earthquake activity has been reported nearby.
Minimum magnitude displayed is 2.5.

Coastal Water Temperatures

Place Temperature
No Stations Reporting

Nearby Weather Stations